sensor_id;sensor_type;location;lat;lon;timestamp;pressure;altitude;pressure_sealevel;temperature;humidity
17054;BME280;8643;48.824;11.422;2023-04-08T00:00:06;96985.75;;;3.08;100.00
17054;BME280;8643;48.824;11.422;2023-04-08T00:02:40;96980.34;;;3.08;100.00
17054;BME280;8643;48.824;11.422;2023-04-08T00:05:09;96983.38;;;3.01;100.00
17054;BME280;8643;48.824;11.422;2023-04-08T00:07:38;96990.81;;;2.85;100.00
17054;BME280;8643;48.824;11.422;2023-04-08T00:10:08;96987.16;;;2.66;100.00
17054;BME280;8643;48.824;11.422;2023-04-08T00:12:36;96988.84;;;2.51;100.00
17054;BME280;8643;48.824;11.422;2023-04-08T00:15:06;96994.28;;;2.41;100.00
17054;BME280;8643;48.824;11.422;2023-04-08T00:17:34;96991.59;;;2.36;100.00
17054;BME280;8643;48.824;11.422;2023-04-08T00:20:06;96997.56;;;2.33;100.00
17054;BME280;8643;48.824;11.422;2023-04-08T00:22:35;96994.59;;;2.34;100.00
17054;BME280;8643;48.824;11.422;2023-04-08T00:25:05;96991.31;;;2.43;100.00
17054;BME280;8643;48.824;11.422;2023-04-08T00:27:35;96992.94;;;2.44;100.00
17054;BME280;8643;48.824;11.422;2023-04-08T00:30:05;96983.75;;;2.45;100.00
17054;BME280;8643;48.824;11.422;2023-04-08T00:32:34;96997.50;;;2.48;100.00
17054;BME280;8643;48.824;11.422;2023-04-08T00:35:05;97001.53;;;2.51;100.00
17054;BME280;8643;48.824;11.422;2023-04-08T00:37:34;97002.38;;;2.46;100.00
17054;BME280;8643;48.824;11.422;2023-04-08T00:40:03;97004.81;;;2.43;100.00
17054;BME280;8643;48.824;11.422;2023-04-08T00:42:31;97000.00;;;2.34;100.00
17054;BME280;8643;48.824;11.422;2023-04-08T00:45:00;97002.69;;;2.34;100.00
17054;BME280;8643;48.824;11.422;2023-04-08T00:47:28;97002.72;;;2.29;100.00
17054;BME280;8643;48.824;11.422;2023-04-08T00:49:57;97010.81;;;2.29;100.00
17054;BME280;8643;48.824;11.422;2023-04-08T00:52:27;97004.81;;;2.43;100.00
17054;BME280;8643;48.824;11.422;2023-04-08T00:54:55;97002.88;;;2.53;100.00
17054;BME280;8643;48.824;11.422;2023-04-08T00:57:24;97005.56;;;2.59;100.00
17054;BME280;8643;48.824;11.422;2023-04-08T00:59:55;97004.72;;;2.63;100.00
17054;BME280;8643;48.824;11.422;2023-04-08T01:02:32;97006.06;;;2.66;100.00
17054;BME280;8643;48.824;11.422;2023-04-08T01:05:06;97001.72;;;2.70;100.00
17054;BME280;8643;48.824;11.422;2023-04-08T01:07:44;97007.31;;;2.79;100.00
17054;BME280;8643;48.824;11.422;2023-04-08T01:10:20;96998.69;;;2.77;100.00
17054;BME280;8643;48.824;11.422;2023-04-08T01:12:55;97003.53;;;2.80;100.00
17054;BME280;8643;48.824;11.422;2023-04-08T01:15:27;97002.69;;;2.89;100.00
17054;BME280;8643;48.824;11.422;2023-04-08T01:17:58;97006.44;;;2.93;100.00
17054;BME280;8643;48.824;11.422;2023-04-08T01:20:29;97003.75;;;2.93;100.00
17054;BME280;8643;48.824;11.422;2023-04-08T01:23:14;97000.44;;;3.02;100.00
17054;BME280;8643;48.824;11.422;2023-04-08T01:25:48;97017.94;;;3.09;100.00
17054;BME280;8643;48.824;11.422;2023-04-08T01:28:18;97009.00;;;3.14;100.00
17054;BME280;8643;48.824;11.422;2023-04-08T01:30:48;97010.38;;;3.11;100.00
17054;BME280;8643;48.824;11.422;2023-04-08T01:33:18;97007.97;;;3.10;100.00
17054;BME280;8643;48.824;11.422;2023-04-08T01:35:50;97006.34;;;3.09;100.00
17054;BME280;8643;48.824;11.422;2023-04-08T01:38:23;97002.25;;;3.11;100.00
17054;BME280;8643;48.824;11.422;2023-04-08T01:40:55;97000.19;;;2.98;100.00
17054;BME280;8643;48.824;11.422;2023-04-08T01:43:26;97002.88;;;2.98;100.00
17054;BME280;8643;48.824;11.422;2023-04-08T01:45:55;97004.19;;;3.06;100.00
17054;BME280;8643;48.824;11.422;2023-04-08T01:48:26;97002.81;;;3.08;100.00
17054;BME280;8643;48.824;11.422;2023-04-08T01:50:57;97004.41;;;3.09;100.00
17054;BME280;8643;48.824;11.422;2023-04-08T01:53:27;96999.19;;;3.23;100.00
17054;BME280;8643;48.824;11.422;2023-04-08T01:56:02;96998.34;;;3.28;100.00
17054;BME280;8643;48.824;11.422;2023-04-08T01:58:41;97003.72;;;3.33;100.00
17054;BME280;8643;48.824;11.422;2023-04-08T02:01:13;96996.91;;;3.41;100.00
17054;BME280;8643;48.824;11.422;2023-04-08T02:03:44;96997.19;;;3.39;100.00
17054;BME280;8643;48.824;11.422;2023-04-08T02:06:14;96996.91;;;3.41;100.00
17054;BME280;8643;48.824;11.422;2023-04-08T02:08:43;96993.94;;;3.37;100.00
17054;BME280;8643;48.824;11.422;2023-04-08T02:11:14;97006.09;;;3.40;100.00
17054;BME280;8643;48.824;11.422;2023-04-08T02:13:42;97008.81;;;3.40;100.00
17054;BME280;8643;48.824;11.422;2023-04-08T02:16:21;97002.63;;;3.34;100.00
17054;BME280;8643;48.824;11.422;2023-04-08T02:18:57;96995.84;;;3.37;100.00
17054;BME280;8643;48.824;11.422;2023-04-08T02:21:36;97006.44;;;3.33;100.00
17054;BME280;8643;48.824;11.422;2023-04-08T02:24:13;97009.47;;;3.26;100.00
17054;BME280;8643;48.824;11.422;2023-04-08T02:26:46;97008.94;;;3.24;100.00
17054;BME280;8643;48.824;11.422;2023-04-08T02:29:18;97013.75;;;3.27;100.00
17054;BME280;8643;48.824;11.422;2023-04-08T02:31:47;97009.19;;;3.28;100.00
17054;BME280;8643;48.824;11.422;2023-04-08T02:34:18;97012.69;;;3.28;100.00
17054;BME280;8643;48.824;11.422;2023-04-08T02:36:49;97013.97;;;3.36;100.00
17054;BME280;8643;48.824;11.422;2023-04-08T02:39:18;97018.28;;;3.37;100.00
17054;BME280;8643;48.824;11.422;2023-04-08T02:41:50;97014.03;;;3.31;100.00
17054;BME280;8643;48.824;11.422;2023-04-08T02:44:21;97014.78;;;3.37;100.00
17054;BME280;8643;48.824;11.422;2023-04-08T02:46:49;97021.09;;;3.27;100.00
17054;BME280;8643;48.824;11.422;2023-04-08T02:49:18;97016.56;;;3.17;100.00
17054;BME280;8643;48.824;11.422;2023-04-08T02:51:47;97019.03;;;3.14;100.00
17054;BME280;8643;48.824;11.422;2023-04-08T02:54:15;97018.50;;;3.06;100.00
17054;BME280;8643;48.824;11.422;2023-04-08T02:56:44;97026.66;;;3.01;100.00
17054;BME280;8643;48.824;11.422;2023-04-08T02:59:14;97029.41;;;2.96;100.00
17054;BME280;8643;48.824;11.422;2023-04-08T03:01:42;97029.97;;;2.93;100.00
17054;BME280;8643;48.824;11.422;2023-04-08T03:04:11;97022.97;;;2.92;100.00
17054;BME280;8643;48.824;11.422;2023-04-08T03:06:39;97028.66;;;2.90;100.00
17054;BME280;8643;48.824;11.422;2023-04-08T03:09:08;97023.22;;;2.90;100.00
17054;BME280;8643;48.824;11.422;2023-04-08T03:11:36;97030.75;;;2.99;100.00
17054;BME280;8643;48.824;11.422;2023-04-08T03:14:04;97032.13;;;2.96;100.00
17054;BME280;8643;48.824;11.422;2023-04-08T03:16:34;97029.94;;;2.98;100.00
17054;BME280;8643;48.824;11.422;2023-04-08T03:19:03;97025.88;;;3.01;100.00
17054;BME280;8643;48.824;11.422;2023-04-08T03:21:31;97023.97;;;3.01;100.00
17054;BME280;8643;48.824;11.422;2023-04-08T03:23:59;97029.38;;;3.01;100.00
17054;BME280;8643;48.824;11.422;2023-04-08T03:26:28;97029.94;;;2.98;100.00
17054;BME280;8643;48.824;11.422;2023-04-08T03:28:57;97032.13;;;2.96;100.00
17054;BME280;8643;48.824;11.422;2023-04-08T03:31:26;97031.84;;;2.98;100.00
17054;BME280;8643;48.824;11.422;2023-04-08T03:33:56;97029.94;;;2.98;100.00
17054;BME280;8643;48.824;11.422;2023-04-08T03:36:24;97027.75;;;3.05;100.00
17054;BME280;8643;48.824;11.422;2023-04-08T03:38:54;97028.50;;;3.11;100.00
17054;BME280;8643;48.824;11.422;2023-04-08T03:41:22;97033.16;;;3.05;100.00
17054;BME280;8643;48.824;11.422;2023-04-08T03:43:51;97033.09;;;3.10;100.00
17054;BME280;8643;48.824;11.422;2023-04-08T03:46:19;97034.78;;;3.01;100.00
17054;BME280;8643;48.824;11.422;2023-04-08T03:48:48;97037.53;;;2.96;100.00
17054;BME280;8643;48.824;11.422;2023-04-08T03:51:18;97034.28;;;2.94;100.00
17054;BME280;8643;48.824;11.422;2023-04-08T03:53:47;97031.59;;;2.94;100.00
17054;BME280;8643;48.824;11.422;2023-04-08T03:56:16;97031.88;;;2.92;100.00
17054;BME280;8643;48.824;11.422;2023-04-08T03:58:45;97030.50;;;2.95;100.00
17054;BME280;8643;48.824;11.422;2023-04-08T04:01:13;97036.47;;;2.92;100.00
17054;BME280;8643;48.824;11.422;2023-04-08T04:03:42;97038.06;;;2.93;100.00
17054;BME280;8643;48.824;11.422;2023-04-08T04:06:11;97048.91;;;2.93;100.00
17054;BME280;8643;48.824;11.422;2023-04-08T04:08:40;97042.97;;;2.91;100.00
17054;BME280;8643;48.824;11.422;2023-04-08T04:11:09;97045.41;;;2.92;100.00
17054;BME280;8643;48.824;11.422;2023-04-08T04:13:38;97043.22;;;2.94;100.00
17054;BME280;8643;48.824;11.422;2023-04-08T04:16:06;97051.88;;;2.97;100.00
17054;BME280;8643;48.824;11.422;2023-04-08T04:18:35;97052.69;;;2.97;100.00
17054;BME280;8643;48.824;11.422;2023-04-08T04:21:05;97056.69;;;3.00;100.00
17054;BME280;8643;48.824;11.422;2023-04-08T04:23:33;97059.13;;;3.01;100.00
17054;BME280;8643;48.824;11.422;2023-04-08T04:26:07;97055.03;;;3.09;100.00
17054;BME280;8643;48.824;11.422;2023-04-08T04:28:37;97054.75;;;3.10;100.00
17054;BME280;8643;48.824;11.422;2023-04-08T04:31:06;97055.56;;;3.11;100.00
17054;BME280;8643;48.824;11.422;2023-04-08T04:33:34;97061.50;;;3.13;100.00
17054;BME280;8643;48.824;11.422;2023-04-08T04:36:03;97057.69;;;3.14;100.00
17054;BME280;8643;48.824;11.422;2023-04-08T04:38:31;97064.75;;;3.15;100.00
17054;BME280;8643;48.824;11.422;2023-04-08T04:41:00;97069.03;;;3.16;100.00
17054;BME280;8643;48.824;11.422;2023-04-08T04:43:30;97064.75;;;3.15;100.00
17054;BME280;8643;48.824;11.422;2023-04-08T04:45:58;97064.47;;;3.17;100.00
17054;BME280;8643;48.824;11.422;2023-04-08T04:48:28;97060.38;;;3.19;100.00
17054;BME280;8643;48.824;11.422;2023-04-08T04:50:59;97066.06;;;3.18;100.00
17054;BME280;8643;48.824;11.422;2023-04-08T04:53:29;97071.19;;;3.24;100.00
17054;BME280;8643;48.824;11.422;2023-04-08T04:55:58;97074.72;;;3.20;100.00
17054;BME280;8643;48.824;11.422;2023-04-08T04:58:29;97078.00;;;3.17;100.00
17054;BME280;8643;48.824;11.422;2023-04-08T05:00:58;97072.81;;;3.20;100.00
17054;BME280;8643;48.824;11.422;2023-04-08T05:03:26;97074.41;;;3.26;100.00
17054;BME280;8643;48.824;11.422;2023-04-08T05:05:55;97071.44;;;3.28;100.00
17054;BME280;8643;48.824;11.422;2023-04-08T05:08:24;97072.50;;;3.27;100.00
17054;BME280;8643;48.824;11.422;2023-04-08T05:10:54;97078.44;;;3.29;100.00
17054;BME280;8643;48.824;11.422;2023-04-08T05:13:22;97080.03;;;3.35;100.00
17054;BME280;8643;48.824;11.422;2023-04-08T05:15:52;97082.16;;;3.38;100.00
17054;BME280;8643;48.824;11.422;2023-04-08T05:18:20;97084.88;;;3.38;100.00
17054;BME280;8643;48.824;11.422;2023-04-08T05:20:49;97078.34;;;3.44;100.00
17054;BME280;8643;48.824;11.422;2023-04-08T05:23:17;97088.06;;;3.51;100.00
17054;BME280;8643;48.824;11.422;2023-04-08T05:25:46;97089.03;;;3.60;100.00
17054;BME280;8643;48.824;11.422;2023-04-08T05:28:14;97091.44;;;3.66;100.00
17054;BME280;8643;48.824;11.422;2023-04-08T05:30:48;97090.81;;;3.80;100.00
17054;BME280;8643;48.824;11.422;2023-04-08T05:33:19;97094.78;;;3.88;100.00
17054;BME280;8643;48.824;11.422;2023-04-08T05:35:47;97101.50;;;3.95;100.00
17054;BME280;8643;48.824;11.422;2023-04-08T05:38:16;97106.63;;;3.97;100.00
17054;BME280;8643;48.824;11.422;2023-04-08T05:40:44;97091.88;;;4.08;100.00
17054;BME280;8643;48.824;11.422;2023-04-08T05:43:13;97099.41;;;4.16;100.00
17054;BME280;8643;48.824;11.422;2023-04-08T05:45:41;97103.97;;;4.21;100.00
17054;BME280;8643;48.824;11.422;2023-04-08T05:48:10;97103.28;;;4.34;100.00
17054;BME280;8643;48.824;11.422;2023-04-08T05:50:39;97111.84;;;4.47;100.00
17054;BME280;8643;48.824;11.422;2023-04-08T05:53:09;97104.44;;;4.52;100.00
17054;BME280;8643;48.824;11.422;2023-04-08T05:55:38;97109.28;;;4.55;100.00
17054;BME280;8643;48.824;11.422;2023-04-08T05:58:07;97103.22;;;4.64;100.00
17054;BME280;8643;48.824;11.422;2023-04-08T06:00:36;97108.53;;;4.74;100.00
17054;BME280;8643;48.824;11.422;2023-04-08T06:03:04;97104.88;;;4.84;100.00
17054;BME280;8643;48.824;11.422;2023-04-08T06:05:33;97098.81;;;4.92;100.00
17054;BME280;8643;48.824;11.422;2023-04-08T06:08:04;97114.28;;;4.91;100.00
17054;BME280;8643;48.824;11.422;2023-04-08T06:10:33;97107.53;;;4.89;100.00
17054;BME280;8643;48.824;11.422;2023-04-08T06:13:01;97113.34;;;5.01;99.67
17054;BME280;8643;48.824;11.422;2023-04-08T06:15:29;97102.94;;;5.08;98.40
17054;BME280;8643;48.824;11.422;2023-04-08T06:17:58;97107.34;;;5.04;98.86
17054;BME280;8643;48.824;11.422;2023-04-08T06:20:27;97113.13;;;4.98;99.32
17054;BME280;8643;48.824;11.422;2023-04-08T06:22:56;97113.34;;;5.01;98.46
17054;BME280;8643;48.824;11.422;2023-04-08T06:25:26;97113.88;;;5.03;98.03
17054;BME280;8643;48.824;11.422;2023-04-08T06:27:54;97116.13;;;4.96;98.94
17054;BME280;8643;48.824;11.422;2023-04-08T06:30:23;97123.22;;;4.92;97.41
17054;BME280;8643;48.824;11.422;2023-04-08T06:32:52;97129.59;;;4.82;97.21
17054;BME280;8643;48.824;11.422;2023-04-08T06:35:20;97132.50;;;4.67;97.68
17054;BME280;8643;48.824;11.422;2023-04-08T06:37:49;97137.16;;;4.61;97.08
17054;BME280;8643;48.824;11.422;2023-04-08T06:40:17;97139.06;;;4.61;97.24
17054;BME280;8643;48.824;11.422;2023-04-08T06:42:47;97141.25;;;4.58;97.22
17054;BME280;8643;48.824;11.422;2023-04-08T06:45:34;97147.19;;;4.61;98.58
17054;BME280;8643;48.824;11.422;2023-04-08T06:48:03;97149.13;;;4.60;97.39
17054;BME280;8643;48.824;11.422;2023-04-08T06:50:33;97147.72;;;4.63;98.63
17054;BME280;8643;48.824;11.422;2023-04-08T06:53:02;97152.69;;;4.55;98.12
17054;BME280;8643;48.824;11.422;2023-04-08T06:55:30;97156.03;;;4.47;99.72
17054;BME280;8643;48.824;11.422;2023-04-08T06:58:00;97160.38;;;4.43;100.00
17054;BME280;8643;48.824;11.422;2023-04-08T07:00:28;97168.41;;;4.29;100.00
17054;BME280;8643;48.824;11.422;2023-04-08T07:02:57;97167.91;;;4.22;100.00
17054;BME280;8643;48.824;11.422;2023-04-08T07:05:26;97169.88;;;4.16;100.00
17054;BME280;8643;48.824;11.422;2023-04-08T07:07:55;97180.22;;;4.09;100.00
17054;BME280;8643;48.824;11.422;2023-04-08T07:10:23;97180.06;;;3.95;100.00
17054;BME280;8643;48.824;11.422;2023-04-08T07:12:53;97185.28;;;3.87;100.00
17054;BME280;8643;48.824;11.422;2023-04-08T07:15:23;97188.50;;;3.89;100.00
17054;BME280;8643;48.824;11.422;2023-04-08T07:17:51;97194.59;;;3.70;100.00
17054;BME280;8643;48.824;11.422;2023-04-08T07:20:23;97196.03;;;3.57;100.00
17054;BME280;8643;48.824;11.422;2023-04-08T07:22:52;97198.72;;;3.62;100.00
17054;BME280;8643;48.824;11.422;2023-04-08T07:25:21;97201.41;;;3.62;100.00
17054;BME280;8643;48.824;11.422;2023-04-08T07:27:49;97204.19;;;3.52;100.00
17054;BME280;8643;48.824;11.422;2023-04-08T07:30:22;97205.47;;;3.60;100.00
17054;BME280;8643;48.824;11.422;2023-04-08T07:32:50;97199.84;;;3.51;100.00
17054;BME280;8643;48.824;11.422;2023-04-08T07:35:23;97209.81;;;3.61;100.00
17054;BME280;8643;48.824;11.422;2023-04-08T07:37:52;97216.88;;;3.57;100.00
17054;BME280;8643;48.824;11.422;2023-04-08T07:40:21;97221.41;;;3.66;100.00
17054;BME280;8643;48.824;11.422;2023-04-08T07:42:49;97220.97;;;3.54;100.00
17054;BME280;8643;48.824;11.422;2023-04-08T07:45:18;97211.53;;;3.46;100.00
17054;BME280;8643;48.824;11.422;2023-04-08T07:47:48;97222.75;;;3.24;100.00
17054;BME280;8643;48.824;11.422;2023-04-08T07:50:17;97224.13;;;3.17;100.00
17054;BME280;8643;48.824;11.422;2023-04-08T07:52:45;97223.03;;;3.12;100.00
17054;BME280;8643;48.824;11.422;2023-04-08T07:55:14;97220.91;;;3.04;100.00
17054;BME280;8643;48.824;11.422;2023-04-08T07:57:43;97228.47;;;3.07;100.00
17054;BME280;8643;48.824;11.422;2023-04-08T08:00:13;97220.63;;;3.06;100.00
17054;BME280;8643;48.824;11.422;2023-04-08T08:02:48;97226.84;;;3.06;100.00
17054;BME280;8643;48.824;11.422;2023-04-08T08:05:17;97235.81;;;2.97;100.00
17054;BME280;8643;48.824;11.422;2023-04-08T08:07:45;97226.03;;;3.06;100.00
17054;BME280;8643;48.824;11.422;2023-04-08T08:10:14;97233.06;;;3.12;100.00
17054;BME280;8643;48.824;11.422;2023-04-08T08:12:43;97240.09;;;3.13;100.00
17054;BME280;8643;48.824;11.422;2023-04-08T08:15:11;97247.66;;;3.11;100.00
17054;BME280;8643;48.824;11.422;2023-04-08T08:17:40;97246.31;;;3.14;100.00
17054;BME280;8643;48.824;11.422;2023-04-08T08:20:11;97250.94;;;3.13;100.00
17054;BME280;8643;48.824;11.422;2023-04-08T08:22:39;97245.78;;;3.01;100.00
17054;BME280;8643;48.824;11.422;2023-04-08T08:25:23;97247.94;;;3.09;100.00
17054;BME280;8643;48.824;11.422;2023-04-08T08:27:52;97253.34;;;3.15;100.00
17054;BME280;8643;48.824;11.422;2023-04-08T08:30:21;97251.69;;;3.19;100.00
17054;BME280;8643;48.824;11.422;2023-04-08T08:32:50;97260.31;;;3.36;100.00
17054;BME280;8643;48.824;11.422;2023-04-08T08:35:20;97263.00;;;3.41;100.00
17054;BME280;8643;48.824;11.422;2023-04-08T08:37:48;97257.03;;;3.44;100.00
17054;BME280;8643;48.824;11.422;2023-04-08T08:40:17;97253.81;;;3.32;100.00
17054;BME280;8643;48.824;11.422;2023-04-08T08:42:50;97257.34;;;3.33;100.00
17054;BME280;8643;48.824;11.422;2023-04-08T08:45:19;97260.34;;;3.31;100.00
17054;BME280;8643;48.824;11.422;2023-04-08T08:47:48;97261.63;;;3.39;100.00
17054;BME280;8643;48.824;11.422;2023-04-08T08:50:19;97261.59;;;3.49;100.00
17054;BME280;8643;48.824;11.422;2023-04-08T08:52:48;97252.09;;;3.52;100.00
17054;BME280;8643;48.824;11.422;2023-04-08T08:55:18;97256.66;;;3.61;100.00
17054;BME280;8643;48.824;11.422;2023-04-08T08:58:07;97268.91;;;3.54;100.00
17054;BME280;8643;48.824;11.422;2023-04-08T09:00:38;97269.66;;;3.59;100.00
17054;BME280;8643;48.824;11.422;2023-04-08T09:03:18;97265.31;;;3.69;100.00
17054;BME280;8643;48.824;11.422;2023-04-08T09:05:51;97272.09;;;3.61;100.00
17054;BME280;8643;48.824;11.422;2023-04-08T09:08:24;97277.16;;;3.78;100.00
17054;BME280;8643;48.824;11.422;2023-04-08T09:10:53;97274.75;;;3.71;100.00
17054;BME280;8643;48.824;11.422;2023-04-08T09:13:23;97275.72;;;3.91;100.00
17054;BME280;8643;48.824;11.422;2023-04-08T09:16:01;97277.22;;;4.12;100.00
17054;BME280;8643;48.824;11.422;2023-04-08T09:18:32;97281.47;;;4.29;100.00
17054;BME280;8643;48.824;11.422;2023-04-08T09:21:03;97274.97;;;4.25;100.00
17054;BME280;8643;48.824;11.422;2023-04-08T09:23:43;97285.38;;;4.07;100.00
17054;BME280;8643;48.824;11.422;2023-04-08T09:26:15;97283.66;;;4.21;100.00
17054;BME280;8643;48.824;11.422;2023-04-08T09:28:57;97287.50;;;4.15;100.00
17054;BME280;8643;48.824;11.422;2023-04-08T09:31:34;97291.34;;;4.09;100.00
17054;BME280;8643;48.824;11.422;2023-04-08T09:34:10;97280.78;;;4.02;100.00
17054;BME280;8643;48.824;11.422;2023-04-08T09:36:41;97290.75;;;4.12;100.00
17054;BME280;8643;48.824;11.422;2023-04-08T09:39:10;97278.09;;;4.02;100.00
17054;BME280;8643;48.824;11.422;2023-04-08T09:41:41;97289.16;;;4.11;100.00
17054;BME280;8643;48.824;11.422;2023-04-08T09:44:10;97286.81;;;3.99;100.00
17054;BME280;8643;48.824;11.422;2023-04-08T09:46:46;97290.88;;;3.97;100.00
17054;BME280;8643;48.824;11.422;2023-04-08T09:49:28;97291.16;;;3.95;100.00
17054;BME280;8643;48.824;11.422;2023-04-08T09:52:06;97287.69;;;3.84;100.00
17054;BME280;8643;48.824;11.422;2023-04-08T09:54:49;97286.81;;;3.94;100.00
17054;BME280;8643;48.824;11.422;2023-04-08T09:57:25;97292.66;;;4.12;100.00
17054;BME280;8643;48.824;11.422;2023-04-08T10:00:03;97293.47;;;4.12;100.00
17054;BME280;8643;48.824;11.422;2023-04-08T10:02:50;97296.19;;;4.12;100.00
17054;BME280;8643;48.824;11.422;2023-04-08T10:05:23;97297.84;;;4.08;100.00
17054;BME280;8643;48.824;11.422;2023-04-08T10:07:55;97298.28;;;4.26;100.00
17054;BME280;8643;48.824;11.422;2023-04-08T10:10:25;97300.13;;;4.35;100.00
17054;BME280;8643;48.824;11.422;2023-04-08T10:12:54;97303.06;;;4.39;100.00
17054;BME280;8643;48.824;11.422;2023-04-08T10:15:25;97303.75;;;4.55;100.00
17054;BME280;8643;48.824;11.422;2023-04-08T10:17:56;97298.97;;;4.41;100.00
17054;BME280;8643;48.824;11.422;2023-04-08T10:20:46;97299.22;;;4.45;100.00
17054;BME280;8643;48.824;11.422;2023-04-08T10:23:17;97294.84;;;4.49;100.00
17054;BME280;8643;48.824;11.422;2023-04-08T10:25:48;97289.78;;;4.37;100.00
17054;BME280;8643;48.824;11.422;2023-04-08T10:28:25;97291.66;;;4.42;100.00
17054;BME280;8643;48.824;11.422;2023-04-08T10:30:55;97297.78;;;4.53;100.00
17054;BME280;8643;48.824;11.422;2023-04-08T10:33:32;97297.78;;;4.53;100.00
17054;BME280;8643;48.824;11.422;2023-04-08T10:36:10;97301.38;;;4.43;100.00
17054;BME280;8643;48.824;11.422;2023-04-08T10:38:42;97301.97;;;4.40;100.00
17054;BME280;8643;48.824;11.422;2023-04-08T10:41:23;97300.91;;;4.36;100.00
17054;BME280;8643;48.824;11.422;2023-04-08T10:43:52;97303.38;;;4.32;100.00
17054;BME280;8643;48.824;11.422;2023-04-08T10:46:21;97304.81;;;4.19;100.00
17054;BME280;8643;48.824;11.422;2023-04-08T10:48:59;97296.34;;;4.31;100.00
17054;BME280;8643;48.824;11.422;2023-04-08T10:51:30;97300.72;;;4.27;100.00
17054;BME280;8643;48.824;11.422;2023-04-08T10:54:07;97302.22;;;4.44;100.00
17054;BME280;8643;48.824;11.422;2023-04-08T10:56:42;97296.19;;;4.52;100.00
17054;BME280;8643;48.824;11.422;2023-04-08T10:59:13;97306.22;;;4.51;100.00
17054;BME280;8643;48.824;11.422;2023-04-08T11:01:45;97309.47;;;4.53;100.00
17054;BME280;8643;48.824;11.422;2023-04-08T11:04:15;97298.69;;;4.43;100.00
17054;BME280;8643;48.824;11.422;2023-04-08T11:06:46;97307.94;;;4.42;100.00
17054;BME280;8643;48.824;11.422;2023-04-08T11:09:16;97300.16;;;4.30;100.00
17054;BME280;8643;48.824;11.422;2023-04-08T11:11:45;97304.19;;;4.33;100.00
17054;BME280;8643;48.824;11.422;2023-04-08T11:14:16;97306.28;;;4.41;100.00
17054;BME280;8643;48.824;11.422;2023-04-08T11:16:48;97308.44;;;4.44;100.00
17054;BME280;8643;48.824;11.422;2023-04-08T11:19:17;97311.06;;;4.54;100.00
17054;BME280;8643;48.824;11.422;2023-04-08T11:21:47;97311.56;;;4.62;100.00
17054;BME280;8643;48.824;11.422;2023-04-08T11:24:20;97314.19;;;4.72;100.00
17054;BME280;8643;48.824;11.422;2023-04-08T11:26:49;97314.28;;;4.62;100.00
17054;BME280;8643;48.824;11.422;2023-04-08T11:29:19;97313.72;;;4.59;100.00
17054;BME280;8643;48.824;11.422;2023-04-08T11:31:48;97310.72;;;4.66;100.00
17054;BME280;8643;48.824;11.422;2023-04-08T11:34:22;97310.63;;;5.06;100.00
17054;BME280;8643;48.824;11.422;2023-04-08T11:36:51;97308.69;;;5.36;100.00
17054;BME280;8643;48.824;11.422;2023-04-08T11:39:23;97312.53;;;5.54;100.00
17054;BME280;8643;48.824;11.422;2023-04-08T11:41:52;97310.16;;;5.71;100.00
17054;BME280;8643;48.824;11.422;2023-04-08T11:44:30;97314.47;;;5.53;100.00
17054;BME280;8643;48.824;11.422;2023-04-08T11:46:59;97311.09;;;5.61;100.00
17054;BME280;8643;48.824;11.422;2023-04-08T11:49:43;97309.44;;;5.84;100.00
17054;BME280;8643;48.824;11.422;2023-04-08T11:52:12;97318.13;;;5.86;100.00
17054;BME280;8643;48.824;11.422;2023-04-08T11:54:42;97316.59;;;5.56;100.00
17054;BME280;8643;48.824;11.422;2023-04-08T11:57:10;97309.94;;;5.67;100.00
17054;BME280;8643;48.824;11.422;2023-04-08T11:59:41;97306.22;;;6.07;100.00
17054;BME280;8643;48.824;11.422;2023-04-08T12:02:10;97313.88;;;6.56;100.00
17054;BME280;8643;48.824;11.422;2023-04-08T12:04:39;97312.44;;;6.45;100.00
17054;BME280;8643;48.824;11.422;2023-04-08T12:07:07;97317.91;;;6.78;100.00
17054;BME280;8643;48.824;11.422;2023-04-08T12:09:37;97314.03;;;6.65;100.00
17054;BME280;8643;48.824;11.422;2023-04-08T12:12:07;97316.91;;;6.55;100.00
17054;BME280;8643;48.824;11.422;2023-04-08T12:14:35;97317.00;;;6.31;100.00
17054;BME280;8643;48.824;11.422;2023-04-08T12:17:03;97321.38;;;5.88;100.00
17054;BME280;8643;48.824;11.422;2023-04-08T12:19:32;97311.50;;;5.93;100.00
17054;BME280;8643;48.824;11.422;2023-04-08T12:22:04;97325.09;;;5.74;100.00
17054;BME280;8643;48.824;11.422;2023-04-08T12:24:32;97316.88;;;5.55;100.00
17054;BME280;8643;48.824;11.422;2023-04-08T12:27:01;97311.75;;;5.53;100.00
17054;BME280;8643;48.824;11.422;2023-04-08T12:29:33;97315.16;;;5.40;100.00
17054;BME280;8643;48.824;11.422;2023-04-08T12:32:01;97316.19;;;5.44;100.00
17054;BME280;8643;48.824;11.422;2023-04-08T12:34:30;97318.03;;;5.24;100.00
17054;BME280;8643;48.824;11.422;2023-04-08T12:36:59;97321.03;;;5.23;100.00
17054;BME280;8643;48.824;11.422;2023-04-08T12:39:28;97319.50;;;5.17;100.00
17054;BME280;8643;48.824;11.422;2023-04-08T12:41:57;97327.81;;;5.25;100.00
17054;BME280;8643;48.824;11.422;2023-04-08T12:44:25;97329.59;;;5.35;100.00
17054;BME280;8643;48.824;11.422;2023-04-08T12:46:55;97326.13;;;5.29;100.00
17054;BME280;8643;48.824;11.422;2023-04-08T12:49:25;97327.47;;;5.32;100.00
17054;BME280;8643;48.824;11.422;2023-04-08T12:51:54;97329.47;;;5.21;100.00
17054;BME280;8643;48.824;11.422;2023-04-08T12:54:22;97331.53;;;5.29;100.00
17054;BME280;8643;48.824;11.422;2023-04-08T12:56:51;97326.88;;;5.35;100.00
17054;BME280;8643;48.824;11.422;2023-04-08T12:59:19;97328.50;;;5.36;100.00
17054;BME280;8643;48.824;11.422;2023-04-08T13:01:48;97327.16;;;5.33;100.00
17054;BME280;8643;48.824;11.422;2023-04-08T13:04:18;97327.28;;;5.47;100.00
17054;BME280;8643;48.824;11.422;2023-04-08T13:06:47;97338.75;;;5.44;100.00
17054;BME280;8643;48.824;11.422;2023-04-08T13:09:15;97332.03;;;5.37;100.00
17054;BME280;8643;48.824;11.422;2023-04-08T13:11:44;97333.91;;;5.36;100.00
17054;BME280;8643;48.824;11.422;2023-04-08T13:14:13;97336.31;;;5.43;100.00
17054;BME280;8643;48.824;11.422;2023-04-08T13:16:41;97335.03;;;5.35;100.00